Time;durP1;ratioP1;P1;durP2;ratioP2;P2;SDS_P1;SDS_P2;PMS_P1;PMS_P2;Temp;Humidity;BMP_temperature;BMP_pressure;BME280_temperature;BME280_humidity;BME280_pressure;Samples;Min_cycle;Max_cycle;Signal;HPM_P1;HPM_P2
2023/09/09 00:01:17;;;;;;;26.43;24.77;;;;;;;;;;5098769;28;20433;-82
2023/09/09 00:03:46;;;;;;;26.80;24.77;;;;;;;;;;5098554;28;20437;-82
2023/09/09 00:06:13;;;;;;;26.20;24.20;;;;;;;;;;5104935;28;20468;-82
2023/09/09 00:08:40;;;;;;;26.37;24.67;;;;;;;;;;5119447;28;20460;-82
2023/09/09 00:11:09;;;;;;;25.27;23.87;;;;;;;;;;5123787;28;20418;-81
2023/09/09 00:13:36;;;;;;;26.43;24.83;;;;;;;;;;5122240;28;20466;-81
2023/09/09 00:16:03;;;;;;;26.07;24.27;;;;;;;;;;5121968;28;20419;-82
2023/09/09 00:18:30;;;;;;;26.27;24.47;;;;;;;;;;5122498;28;20425;-82
2023/09/09 00:21:00;;;;;;;26.60;25.00;;;;;;;;;;5122031;28;20460;-83
2023/09/09 00:23:27;;;;;;;26.90;25.00;;;;;;;;;;5120553;28;20580;-83
2023/09/09 00:25:54;;;;;;;25.13;23.53;;;;;;;;;;5120444;28;20488;-81
2023/09/09 00:28:21;;;;;;;24.67;23.20;;;;;;;;;;5115929;28;20447;-81
2023/09/09 00:30:55;;;;;;;27.23;25.33;;;;;;;;;;5113597;28;20479;-83
2023/09/09 00:33:22;;;;;;;27.10;25.40;;;;;;;;;;5113726;28;20441;-81
2023/09/09 00:35:49;;;;;;;25.57;24.00;;;;;;;;;;5102442;28;20422;-82
2023/09/09 00:38:18;;;;;;;27.03;25.43;;;;;;;;;;5100218;28;20854;-82
2023/09/09 00:41:05;;;;;;;26.70;25.10;;;;;;;;;;5099463;28;20451;-81
2023/09/09 00:43:32;;;;;;;25.50;24.07;;;;;;;;;;5098393;28;20452;-82
2023/09/09 00:45:59;;;;;;;27.97;25.87;;;;;;;;;;5098683;28;20997;-82
2023/09/09 00:48:26;;;;;;;27.70;25.37;;;;;;;;;;5098201;28;20412;-82
2023/09/09 00:50:53;;;;;;;26.43;24.90;;;;;;;;;;5098741;28;20448;-82
2023/09/09 00:53:22;;;;;;;25.80;24.20;;;;;;;;;;5112240;28;20426;-83
2023/09/09 00:55:49;;;;;;;27.13;25.30;;;;;;;;;;5119588;28;20422;-82
2023/09/09 00:58:16;;;;;;;27.40;25.60;;;;;;;;;;5118827;28;20815;-82
2023/09/09 01:00:43;;;;;;;28.43;26.63;;;;;;;;;;5107221;28;20971;-82
2023/09/09 01:03:10;;;;;;;27.03;25.37;;;;;;;;;;5098802;28;20422;-82
2023/09/09 01:05:38;;;;;;;27.03;25.40;;;;;;;;;;5098701;28;20456;-82
2023/09/09 01:08:06;;;;;;;27.70;25.90;;;;;;;;;;5098603;28;20415;-81
2023/09/09 01:10:34;;;;;;;26.40;24.70;;;;;;;;;;5097121;28;20500;-82
2023/09/09 01:13:01;;;;;;;26.43;24.80;;;;;;;;;;5097552;28;20423;-81
2023/09/09 01:15:28;;;;;;;27.57;25.80;;;;;;;;;;5096774;28;20427;-82
2023/09/09 01:17:55;;;;;;;27.10;25.37;;;;;;;;;;5096192;28;20449;-83
2023/09/09 01:20:25;;;;;;;26.00;24.50;;;;;;;;;;5096968;28;20434;-83
2023/09/09 01:22:54;;;;;;;27.23;25.57;;;;;;;;;;5096192;28;20388;-82
2023/09/09 01:25:21;;;;;;;27.13;25.20;;;;;;;;;;5097031;28;20493;-81
2023/09/09 01:27:48;;;;;;;25.90;24.10;;;;;;;;;;5096415;28;21238;-82
2023/09/09 01:30:16;;;;;;;26.60;25.07;;;;;;;;;;5095946;28;20451;-81
2023/09/09 01:32:44;;;;;;;28.20;26.37;;;;;;;;;;5096105;28;20448;-82
2023/09/09 01:35:11;;;;;;;28.00;26.20;;;;;;;;;;5096673;28;20423;-82
2023/09/09 01:37:38;;;;;;;27.27;25.60;;;;;;;;;;5095873;28;20459;-81
2023/09/09 01:40:10;;;;;;;27.27;25.63;;;;;;;;;;5096005;28;20439;-81
2023/09/09 01:42:37;;;;;;;28.27;26.17;;;;;;;;;;5095896;28;20457;-82
2023/09/09 01:45:05;;;;;;;26.80;24.90;;;;;;;;;;5095371;28;20524;-81
2023/09/09 01:47:32;;;;;;;26.00;24.40;;;;;;;;;;5095401;28;20404;-81
2023/09/09 01:49:59;;;;;;;28.23;26.33;;;;;;;;;;5096029;28;20451;-82
2023/09/09 01:52:26;;;;;;;27.47;25.87;;;;;;;;;;5095553;28;20415;-82
2023/09/09 01:54:53;;;;;;;26.70;25.10;;;;;;;;;;5095362;28;20850;-81
2023/09/09 01:57:22;;;;;;;27.63;25.73;;;;;;;;;;5094692;28;20435;-82
2023/09/09 01:59:49;;;;;;;26.67;25.13;;;;;;;;;;5095363;28;20539;-81
2023/09/09 02:02:16;;;;;;;27.60;25.70;;;;;;;;;;5095504;28;20448;-82
2023/09/09 02:04:43;;;;;;;26.43;24.80;;;;;;;;;;5094785;28;20488;-81
2023/09/09 02:07:10;;;;;;;26.30;24.70;;;;;;;;;;5094295;28;20531;-82
2023/09/09 02:09:37;;;;;;;26.90;25.20;;;;;;;;;;5113030;28;20474;-81
2023/09/09 02:12:05;;;;;;;27.40;25.63;;;;;;;;;;5115314;28;20922;-82
2023/09/09 02:14:33;;;;;;;26.07;24.30;;;;;;;;;;5121697;28;20427;-81
2023/09/09 02:17:00;;;;;;;27.37;25.27;;;;;;;;;;5116809;28;21223;-81
2023/09/09 02:19:27;;;;;;;28.47;26.73;;;;;;;;;;5116295;28;20442;-83
2023/09/09 02:21:55;;;;;;;27.27;25.57;;;;;;;;;;5116269;28;20786;-81
2023/09/09 02:24:22;;;;;;;27.70;25.80;;;;;;;;;;5116133;28;20427;-83
2023/09/09 02:26:49;;;;;;;28.17;26.07;;;;;;;;;;5114879;28;20450;-81
2023/09/09 02:29:16;;;;;;;29.97;27.97;;;;;;;;;;5115731;28;20470;-81
2023/09/09 02:31:45;;;;;;;28.27;26.37;;;;;;;;;;5115588;28;20433;-82
2023/09/09 02:34:12;;;;;;;27.17;25.47;;;;;;;;;;5115623;28;20979;-82
2023/09/09 02:36:39;;;;;;;29.13;27.33;;;;;;;;;;5115089;28;20414;-81
2023/09/09 02:39:06;;;;;;;27.00;25.23;;;;;;;;;;5115601;28;20438;-81
2023/09/09 02:41:33;;;;;;;28.30;26.33;;;;;;;;;;5116128;28;20419;-81
2023/09/09 02:44:00;;;;;;;26.67;25.07;;;;;;;;;;5117565;28;20414;-81
2023/09/09 02:46:27;;;;;;;27.83;26.10;;;;;;;;;;5116282;28;20510;-82
2023/09/09 02:48:55;;;;;;;26.70;25.10;;;;;;;;;;5115537;28;20978;-82
2023/09/09 02:51:22;;;;;;;25.80;24.20;;;;;;;;;;5115326;28;20426;-81
2023/09/09 02:53:50;;;;;;;27.50;25.70;;;;;;;;;;5115404;28;20435;-82
2023/09/09 02:56:17;;;;;;;27.90;26.10;;;;;;;;;;5115607;28;20415;-81
2023/09/09 02:58:44;;;;;;;28.50;26.50;;;;;;;;;;5116810;28;20453;-82
2023/09/09 03:01:11;;;;;;;27.33;25.70;;;;;;;;;;5117209;28;20422;-81
2023/09/09 03:03:38;;;;;;;26.83;25.13;;;;;;;;;;5115647;28;20414;-81
2023/09/09 03:06:11;;;;;;;27.77;25.87;;;;;;;;;;5115110;28;20965;-83
2023/09/09 03:08:38;;;;;;;27.07;25.37;;;;;;;;;;5116148;28;20424;-81
2023/09/09 03:11:05;;;;;;;27.30;25.50;;;;;;;;;;5118285;28;20512;-83
2023/09/09 03:13:32;;;;;;;26.20;24.60;;;;;;;;;;5117529;28;20418;-82
2023/09/09 03:15:59;;;;;;;25.53;24.03;;;;;;;;;;5117091;28;20443;-81
2023/09/09 03:18:26;;;;;;;27.53;25.50;;;;;;;;;;5117761;28;20418;-82
2023/09/09 03:20:53;;;;;;;26.13;24.53;;;;;;;;;;5116363;28;20464;-81
2023/09/09 03:23:22;;;;;;;26.47;24.73;;;;;;;;;;5117259;28;20444;-81
2023/09/09 03:25:49;;;;;;;26.37;24.70;;;;;;;;;;5117429;28;20484;-82
2023/09/09 03:28:16;;;;;;;26.03;24.50;;;;;;;;;;5116321;28;20480;-82
2023/09/09 03:30:58;;;;;;;25.40;23.90;;;;;;;;;;5119615;28;20461;-82
2023/09/09 03:33:26;;;;;;;27.27;25.37;;;;;;;;;;5101411;28;20975;-82
2023/09/09 03:35:54;;;;;;;27.00;25.30;;;;;;;;;;5109112;28;20408;-82
2023/09/09 03:38:22;;;;;;;26.67;24.97;;;;;;;;;;5111499;28;20419;-82
2023/09/09 03:40:49;;;;;;;27.40;25.73;;;;;;;;;;5114172;28;20410;-84
2023/09/09 03:43:16;;;;;;;27.70;26.10;;;;;;;;;;5115250;28;20445;-82
2023/09/09 03:45:43;;;;;;;27.40;25.60;;;;;;;;;;5123722;28;20443;-83
2023/09/09 03:48:10;;;;;;;28.50;26.70;;;;;;;;;;5114804;28;20494;-83
2023/09/09 03:50:37;;;;;;;28.20;26.50;;;;;;;;;;5114893;28;20460;-83
2023/09/09 03:53:04;;;;;;;27.83;26.03;;;;;;;;;;5121611;28;20429;-83
2023/09/09 03:55:34;;;;;;;28.80;26.90;;;;;;;;;;5119826;28;20426;-82
2023/09/09 03:58:01;;;;;;;28.03;26.33;;;;;;;;;;5125583;28;20467;-83
2023/09/09 04:00:28;;;;;;;27.53;25.80;;;;;;;;;;5110222;28;21234;-83
2023/09/09 04:02:55;;;;;;;28.50;26.50;;;;;;;;;;5109692;28;20430;-82
2023/09/09 04:05:22;;;;;;;29.30;27.40;;;;;;;;;;5116702;28;21088;-83
2023/09/09 04:07:49;;;;;;;27.40;25.77;;;;;;;;;;5113325;28;20473;-82
2023/09/09 04:10:16;;;;;;;28.97;27.13;;;;;;;;;;5120908;28;20458;-81
2023/09/09 04:12:45;;;;;;;27.93;26.13;;;;;;;;;;5103862;28;20455;-81
2023/09/09 04:15:12;;;;;;;29.37;27.33;;;;;;;;;;5105100;28;20442;-82
2023/09/09 04:17:40;;;;;;;29.30;27.50;;;;;;;;;;5096215;28;21095;-82
2023/09/09 04:20:09;;;;;;;27.50;25.70;;;;;;;;;;5114703;28;20467;-81
2023/09/09 04:22:36;;;;;;;29.00;27.20;;;;;;;;;;5119969;28;20459;-81
2023/09/09 04:25:03;;;;;;;27.87;26.17;;;;;;;;;;5117111;28;20456;-82
2023/09/09 04:27:31;;;;;;;27.90;26.20;;;;;;;;;;5120889;28;20472;-81
2023/09/09 04:30:00;;;;;;;27.90;26.30;;;;;;;;;;5116634;28;20560;-82
2023/09/09 04:32:31;;;;;;;28.80;27.00;;;;;;;;;;5097490;28;20452;-82
2023/09/09 04:34:58;;;;;;;29.77;27.87;;;;;;;;;;5097264;28;20543;-83
2023/09/09 04:37:27;;;;;;;28.77;27.03;;;;;;;;;;5115680;28;20478;-82
2023/09/09 04:39:54;;;;;;;29.53;27.70;;;;;;;;;;5116461;28;20479;-86
2023/09/09 04:42:21;;;;;;;29.13;26.90;;;;;;;;;;5109721;28;20431;-82
2023/09/09 04:44:48;;;;;;;28.50;26.70;;;;;;;;;;5105789;28;20487;-83
2023/09/09 04:47:17;;;;;;;27.90;26.20;;;;;;;;;;5103227;28;20487;-83
2023/09/09 04:49:44;;;;;;;27.30;25.70;;;;;;;;;;5104467;28;20837;-82
2023/09/09 04:52:11;;;;;;;29.13;27.10;;;;;;;;;;5116413;28;20929;-83
2023/09/09 04:54:38;;;;;;;27.40;25.80;;;;;;;;;;5107709;28;20430;-82
2023/09/09 04:57:05;;;;;;;27.17;25.57;;;;;;;;;;5099147;28;20430;-81
2023/09/09 04:59:33;;;;;;;29.47;27.57;;;;;;;;;;5102184;28;20489;-82
2023/09/09 05:02:00;;;;;;;28.00;26.20;;;;;;;;;;5108505;28;20431;-80
2023/09/09 05:04:28;;;;;;;27.13;25.53;;;;;;;;;;5099557;28;20420;-82
2023/09/09 05:06:55;;;;;;;25.90;24.40;;;;;;;;;;5106869;28;20467;-87
2023/09/09 05:09:22;;;;;;;26.80;25.20;;;;;;;;;;5118989;28;20982;-82
2023/09/09 05:11:49;;;;;;;28.43;26.50;;;;;;;;;;5107436;28;20472;-82
2023/09/09 05:14:16;;;;;;;27.90;26.17;;;;;;;;;;5107179;28;20459;-81
2023/09/09 05:16:45;;;;;;;28.27;26.47;;;;;;;;;;5102635;28;20910;-83
2023/09/09 05:19:13;;;;;;;26.93;25.07;;;;;;;;;;5101473;28;20447;-82
2023/09/09 05:21:41;;;;;;;28.10;26.37;;;;;;;;;;5115380;28;20831;-82
2023/09/09 05:24:09;;;;;;;27.27;25.47;;;;;;;;;;5119878;28;20422;-83
2023/09/09 05:26:36;;;;;;;27.23;25.63;;;;;;;;;;5119284;28;20567;-82
2023/09/09 05:29:03;;;;;;;27.70;25.90;;;;;;;;;;5120481;28;20446;-81
2023/09/09 05:31:30;;;;;;;26.77;25.10;;;;;;;;;;5119800;28;20426;-81
2023/09/09 05:33:57;;;;;;;27.30;25.60;;;;;;;;;;5119764;28;20755;-83
2023/09/09 05:36:24;;;;;;;26.57;24.63;;;;;;;;;;5119205;28;20556;-82
2023/09/09 05:38:59;;;;;;;25.37;23.87;;;;;;;;;;5119158;28;20438;-82
2023/09/09 05:41:26;;;;;;;27.00;25.30;;;;;;;;;;5119516;28;20459;-82
2023/09/09 05:43:53;;;;;;;26.67;25.10;;;;;;;;;;5119666;28;20473;-81
2023/09/09 05:46:21;;;;;;;26.30;24.70;;;;;;;;;;5120240;28;20496;-84
2023/09/09 05:48:48;;;;;;;26.10;24.60;;;;;;;;;;5134976;28;20442;-81
2023/09/09 05:51:16;;;;;;;26.23;24.60;;;;;;;;;;5107313;28;20430;-82
2023/09/09 05:53:43;;;;;;;26.70;25.10;;;;;;;;;;5118953;28;20430;-82
2023/09/09 05:56:11;;;;;;;26.80;25.10;;;;;;;;;;5118875;28;20499;-83
2023/09/09 05:58:39;;;;;;;27.10;25.50;;;;;;;;;;5118822;28;20787;-82
2023/09/09 06:01:06;;;;;;;25.47;23.90;;;;;;;;;;5119091;28;20456;-81
2023/09/09 06:03:35;;;;;;;26.73;25.13;;;;;;;;;;5119149;28;20447;-83
2023/09/09 06:06:02;;;;;;;26.23;24.53;;;;;;;;;;5118930;28;20459;-82
2023/09/09 06:08:29;;;;;;;26.57;24.90;;;;;;;;;;5119156;28;20439;-84
2023/09/09 06:10:56;;;;;;;25.17;23.57;;;;;;;;;;5117633;28;20517;-81
2023/09/09 06:13:25;;;;;;;25.43;23.83;;;;;;;;;;5122493;28;20471;-80
2023/09/09 06:15:52;;;;;;;25.37;23.70;;;;;;;;;;5117642;28;20456;-80
2023/09/09 06:18:19;;;;;;;25.93;24.33;;;;;;;;;;5118175;28;20444;-82
2023/09/09 06:20:52;;;;;;;26.00;24.50;;;;;;;;;;5115781;28;20458;-81
2023/09/09 06:23:19;;;;;;;24.97;23.47;;;;;;;;;;5116696;28;20441;-80
2023/09/09 06:25:46;;;;;;;24.40;23.10;;;;;;;;;;5114869;28;20825;-81
2023/09/09 06:28:13;;;;;;;25.50;23.87;;;;;;;;;;5116972;28;20483;-82
2023/09/09 06:30:44;;;;;;;24.63;23.23;;;;;;;;;;5118967;28;20520;-79
2023/09/09 06:33:11;;;;;;;24.03;22.73;;;;;;;;;;5120477;28;20407;-81
2023/09/09 06:35:38;;;;;;;25.30;23.63;;;;;;;;;;5120082;28;20407;-80
2023/09/09 06:38:06;;;;;;;25.30;23.90;;;;;;;;;;5117595;28;20415;-81
2023/09/09 06:40:33;;;;;;;24.00;22.60;;;;;;;;;;5118744;28;20537;-81
2023/09/09 06:43:00;;;;;;;25.10;23.33;;;;;;;;;;5119697;28;20450;-81
2023/09/09 06:45:27;;;;;;;24.80;23.30;;;;;;;;;;5119460;28;20418;-80
2023/09/09 06:47:56;;;;;;;23.00;21.70;;;;;;;;;;5119438;28;20461;-80
2023/09/09 06:50:23;;;;;;;23.63;22.03;;;;;;;;;;5121317;28;20507;-80
2023/09/09 06:52:50;;;;;;;24.00;22.70;;;;;;;;;;5124022;28;20437;-81
2023/09/09 06:55:18;;;;;;;22.90;21.60;;;;;;;;;;5132868;28;20452;-80
2023/09/09 06:57:45;;;;;;;23.83;22.30;;;;;;;;;;5111675;28;20414;-81
2023/09/09 07:00:14;;;;;;;23.27;21.87;;;;;;;;;;5119225;28;20447;-81
2023/09/09 07:02:41;;;;;;;22.77;21.47;;;;;;;;;;5127551;28;20462;-81
2023/09/09 07:05:11;;;;;;;23.57;22.07;;;;;;;;;;5122002;28;20488;-81
2023/09/09 07:07:38;;;;;;;23.10;21.90;;;;;;;;;;5119306;28;20461;-81
2023/09/09 07:10:05;;;;;;;22.83;21.53;;;;;;;;;;5120274;28;20838;-81
2023/09/09 07:12:32;;;;;;;22.57;21.27;;;;;;;;;;5121353;28;20441;-81
2023/09/09 07:14:59;;;;;;;24.40;23.00;;;;;;;;;;5126685;28;20426;-79
2023/09/09 07:17:26;;;;;;;22.87;21.47;;;;;;;;;;5124162;28;20414;-81
2023/09/09 07:19:53;;;;;;;23.63;21.83;;;;;;;;;;5124428;28;20884;-81
2023/09/09 07:22:22;;;;;;;23.87;22.47;;;;;;;;;;5119648;28;20434;-80
2023/09/09 07:24:49;;;;;;;24.20;22.80;;;;;;;;;;5100920;28;20480;-82
2023/09/09 07:27:16;;;;;;;23.83;22.20;;;;;;;;;;5100348;28;20463;-82
2023/09/09 07:29:44;;;;;;;24.43;22.30;;;;;;;;;;5104451;28;20450;-83
2023/09/09 07:32:11;;;;;;;23.80;22.20;;;;;;;;;;5102625;28;20936;-83
2023/09/09 07:34:38;;;;;;;24.77;23.27;;;;;;;;;;5102318;28;20431;-83
2023/09/09 07:37:05;;;;;;;26.50;24.90;;;;;;;;;;5103457;28;20475;-81
2023/09/09 07:39:44;;;;;;;25.87;24.37;;;;;;;;;;5116906;28;20434;-80
2023/09/09 07:42:11;;;;;;;24.90;23.40;;;;;;;;;;5105830;28;20435;-80
2023/09/09 07:44:39;;;;;;;24.00;22.60;;;;;;;;;;5117983;28;20429;-80
2023/09/09 07:47:07;;;;;;;24.73;23.33;;;;;;;;;;5120364;28;20483;-86
2023/09/09 07:49:34;;;;;;;25.00;23.50;;;;;;;;;;5118729;28;20482;-81
2023/09/09 07:52:02;;;;;;;24.43;23.13;;;;;;;;;;5122107;28;20452;-81
2023/09/09 07:54:29;;;;;;;25.03;23.40;;;;;;;;;;5125777;28;20885;-81
2023/09/09 07:56:59;;;;;;;25.43;24.03;;;;;;;;;;5121070;28;20423;-81
2023/09/09 07:59:26;;;;;;;24.50;22.90;;;;;;;;;;5120952;28;20457;-81
2023/09/09 08:01:54;;;;;;;26.50;24.90;;;;;;;;;;5129970;28;20452;-80
2023/09/09 08:04:21;;;;;;;24.87;23.53;;;;;;;;;;5121908;28;20431;-81
2023/09/09 08:06:49;;;;;;;25.30;23.83;;;;;;;;;;5109186;28;20431;-81
2023/09/09 08:09:16;;;;;;;25.37;23.70;;;;;;;;;;5106819;28;20541;-81
2023/09/09 08:11:43;;;;;;;26.10;24.60;;;;;;;;;;5099145;28;20453;-81
2023/09/09 08:14:11;;;;;;;26.10;24.60;;;;;;;;;;5102909;28;20489;-81
2023/09/09 08:16:38;;;;;;;26.40;24.60;;;;;;;;;;5103604;28;20465;-81
2023/09/09 08:19:05;;;;;;;25.17;23.70;;;;;;;;;;5106162;28;20448;-80
2023/09/09 08:21:33;;;;;;;26.07;24.57;;;;;;;;;;5107974;28;20432;-82
2023/09/09 08:24:00;;;;;;;23.80;22.50;;;;;;;;;;5103721;28;20466;-82
2023/09/09 08:26:27;;;;;;;25.07;23.63;;;;;;;;;;5104401;28;20488;-82
2023/09/09 08:28:55;;;;;;;25.27;23.57;;;;;;;;;;5104807;28;21004;-80
2023/09/09 08:31:23;;;;;;;24.33;22.93;;;;;;;;;;5106447;28;20533;-82
2023/09/09 08:33:50;;;;;;;26.00;24.30;;;;;;;;;;5105089;28;20517;-81
2023/09/09 08:36:17;;;;;;;26.10;24.13;;;;;;;;;;5104778;28;20408;-82
2023/09/09 08:38:44;;;;;;;25.87;24.20;;;;;;;;;;5102419;28;20435;-82
2023/09/09 08:41:12;;;;;;;25.80;24.30;;;;;;;;;;5099703;28;21013;-83
2023/09/09 08:43:45;;;;;;;25.83;24.03;;;;;;;;;;5100888;28;20464;-81
2023/09/09 08:46:13;;;;;;;25.10;23.30;;;;;;;;;;5101891;28;20765;-86
2023/09/09 08:48:43;;;;;;;25.83;24.27;;;;;;;;;;5108111;28;20899;-81
2023/09/09 08:51:11;;;;;;;26.10;24.40;;;;;;;;;;5120916;28;20475;-81
2023/09/09 08:53:39;;;;;;;26.27;24.67;;;;;;;;;;5111632;28;20928;-81
2023/09/09 08:56:06;;;;;;;26.20;24.70;;;;;;;;;;5113403;28;20799;-81
2023/09/09 08:58:33;;;;;;;26.00;24.20;;;;;;;;;;5118429;28;20955;-81
2023/09/09 09:01:01;;;;;;;25.57;24.03;;;;;;;;;;5108519;28;20444;-81
2023/09/09 09:03:28;;;;;;;26.67;24.97;;;;;;;;;;5106355;28;21228;-81
2023/09/09 09:05:58;;;;;;;25.83;24.33;;;;;;;;;;5100501;28;20438;-82
2023/09/09 09:08:25;;;;;;;26.27;24.20;;;;;;;;;;5099145;28;20488;-81
2023/09/09 09:10:52;;;;;;;26.00;24.30;;;;;;;;;;5099033;28;20456;-80
2023/09/09 09:13:19;;;;;;;28.03;26.13;;;;;;;;;;5098672;28;20827;-80
2023/09/09 09:15:46;;;;;;;26.80;25.10;;;;;;;;;;5100083;28;20427;-80
2023/09/09 09:18:13;;;;;;;26.40;24.60;;;;;;;;;;5099987;28;20452;-81
2023/09/09 09:20:41;;;;;;;27.43;25.63;;;;;;;;;;5104283;28;20493;-82
2023/09/09 09:23:13;;;;;;;26.60;25.00;;;;;;;;;;5112039;28;20450;-82
2023/09/09 09:25:42;;;;;;;27.63;25.63;;;;;;;;;;5127057;28;20437;-81
2023/09/09 09:28:10;;;;;;;28.57;26.77;;;;;;;;;;5132576;28;20462;-81
2023/09/09 09:30:38;;;;;;;26.57;25.00;;;;;;;;;;5130112;28;20464;-82
2023/09/09 09:33:05;;;;;;;25.83;24.33;;;;;;;;;;5127618;28;20425;-82
2023/09/09 09:35:33;;;;;;;27.23;25.57;;;;;;;;;;5128547;28;20502;-81
2023/09/09 09:38:01;;;;;;;27.73;26.13;;;;;;;;;;5127766;28;20444;-82
2023/09/09 09:40:30;;;;;;;27.30;25.50;;;;;;;;;;5125902;28;20442;-81
2023/09/09 09:42:58;;;;;;;25.90;24.40;;;;;;;;;;5133873;28;20440;-80
2023/09/09 09:45:25;;;;;;;26.87;25.20;;;;;;;;;;5133597;28;20416;-82
2023/09/09 09:47:53;;;;;;;25.93;24.33;;;;;;;;;;5124125;28;20484;-81
2023/09/09 09:50:22;;;;;;;27.67;25.87;;;;;;;;;;5125035;28;20496;-82
2023/09/09 09:52:51;;;;;;;26.20;24.60;;;;;;;;;;5129566;28;20470;-81
2023/09/09 09:55:18;;;;;;;26.80;25.20;;;;;;;;;;5135517;28;20471;-82
2023/09/09 09:57:47;;;;;;;26.03;24.40;;;;;;;;;;5134531;28;20448;-82
2023/09/09 10:00:15;;;;;;;26.53;25.03;;;;;;;;;;5127418;28;20464;-82
2023/09/09 10:02:42;;;;;;;26.10;24.50;;;;;;;;;;5125957;28;20423;-82
2023/09/09 10:05:11;;;;;;;25.00;23.53;;;;;;;;;;5117354;28;20456;-82
2023/09/09 10:07:40;;;;;;;27.00;25.40;;;;;;;;;;5102119;28;20480;-82
2023/09/09 10:10:09;;;;;;;26.47;24.97;;;;;;;;;;5119965;28;20463;-82
2023/09/09 10:12:38;;;;;;;26.57;24.97;;;;;;;;;;5115037;28;20453;-82
2023/09/09 10:15:08;;;;;;;26.80;25.20;;;;;;;;;;5100062;28;20452;-82
2023/09/09 10:17:36;;;;;;;28.33;26.70;;;;;;;;;;5099675;28;20460;-82
2023/09/09 10:20:05;;;;;;;28.70;27.00;;;;;;;;;;5099327;28;20495;-82
2023/09/09 10:22:32;;;;;;;26.20;24.50;;;;;;;;;;5098073;28;20441;-82
2023/09/09 10:25:03;;;;;;;27.33;25.73;;;;;;;;;;5100082;28;20988;-82
2023/09/09 10:27:30;;;;;;;26.10;24.50;;;;;;;;;;5099520;28;20431;-82
2023/09/09 10:29:59;;;;;;;25.60;24.03;;;;;;;;;;5111850;28;20490;-82
2023/09/09 10:32:27;;;;;;;25.67;24.17;;;;;;;;;;5119811;28;20440;-82
2023/09/09 10:34:55;;;;;;;28.27;26.57;;;;;;;;;;5118586;28;20441;-82
2023/09/09 10:37:23;;;;;;;28.20;26.10;;;;;;;;;;5118209;28;20792;-81
2023/09/09 10:39:50;;;;;;;27.17;25.40;;;;;;;;;;5119206;28;20468;-82
2023/09/09 10:42:17;;;;;;;25.80;24.10;;;;;;;;;;5118947;28;20455;-81
2023/09/09 10:44:48;;;;;;;27.37;25.77;;;;;;;;;;5119500;28;20427;-82
2023/09/09 10:47:15;;;;;;;26.40;24.60;;;;;;;;;;5118713;28;20458;-82
2023/09/09 10:49:44;;;;;;;25.50;24.10;;;;;;;;;;5119659;28;20830;-82
2023/09/09 10:52:26;;;;;;;27.93;26.13;;;;;;;;;;5120988;28;20437;-81
2023/09/09 10:55:10;;;;;;;28.50;26.83;;;;;;;;;;5103727;28;20468;-82
2023/09/09 10:57:37;;;;;;;26.20;24.67;;;;;;;;;;5097566;28;20932;-82
2023/09/09 11:00:06;;;;;;;26.30;24.70;;;;;;;;;;5106712;28;20468;-82
2023/09/09 11:02:44;;;;;;;29.37;27.00;;;;;;;;;;5116715;28;20451;-82
2023/09/09 11:05:14;;;;;;;27.10;25.47;;;;;;;;;;5111079;28;20466;-83
2023/09/09 11:07:41;;;;;;;26.47;24.87;;;;;;;;;;5106117;28;20449;-82
2023/09/09 11:10:08;;;;;;;26.37;24.70;;;;;;;;;;5097373;28;20444;-82
2023/09/09 11:12:37;;;;;;;26.47;24.80;;;;;;;;;;5097501;28;20448;-83
2023/09/09 11:15:08;;;;;;;26.73;25.00;;;;;;;;;;5099081;28;20451;-83
2023/09/09 11:17:36;;;;;;;26.27;24.60;;;;;;;;;;5114351;28;20462;-82
2023/09/09 11:20:04;;;;;;;27.03;25.30;;;;;;;;;;5119328;28;20464;-83
2023/09/09 11:22:32;;;;;;;26.23;24.60;;;;;;;;;;5119530;28;20456;-82
2023/09/09 11:24:59;;;;;;;25.93;24.33;;;;;;;;;;5121166;28;20447;-83
2023/09/09 11:27:26;;;;;;;26.90;25.23;;;;;;;;;;5120240;28;21324;-83
2023/09/09 11:29:55;;;;;;;26.40;24.70;;;;;;;;;;5121754;28;20475;-82
2023/09/09 11:32:25;;;;;;;28.03;25.60;;;;;;;;;;5120939;28;20440;-82
2023/09/09 11:34:53;;;;;;;27.80;25.83;;;;;;;;;;5119333;28;20445;-83
2023/09/09 11:37:20;;;;;;;26.23;24.57;;;;;;;;;;5119860;28;20414;-82
2023/09/09 11:39:48;;;;;;;26.73;25.03;;;;;;;;;;5118514;28;20460;-81
2023/09/09 11:42:15;;;;;;;26.87;25.30;;;;;;;;;;5118441;28;20426;-82
2023/09/09 11:44:43;;;;;;;26.50;24.87;;;;;;;;;;5102130;28;20452;-82
2023/09/09 11:47:11;;;;;;;27.93;25.93;;;;;;;;;;5118400;28;20426;-81
2023/09/09 11:49:39;;;;;;;26.80;25.10;;;;;;;;;;5118291;28;20558;-82
2023/09/09 11:52:06;;;;;;;27.67;25.80;;;;;;;;;;5118910;28;20985;-81
2023/09/09 11:54:33;;;;;;;27.07;25.37;;;;;;;;;;5117585;28;20471;-81
2023/09/09 11:57:09;;;;;;;27.40;25.70;;;;;;;;;;5117936;28;20449;-82
2023/09/09 11:59:45;;;;;;;26.83;25.13;;;;;;;;;;5121290;28;20433;-81
2023/09/09 12:02:19;;;;;;;27.43;25.73;;;;;;;;;;5121412;28;20447;-81
2023/09/09 12:04:56;;;;;;;27.30;25.67;;;;;;;;;;5121738;28;20419;-82
2023/09/09 12:07:23;;;;;;;27.60;25.70;;;;;;;;;;5121474;28;20444;-81
2023/09/09 12:09:51;;;;;;;27.03;25.30;;;;;;;;;;5125242;28;20483;-82
2023/09/09 12:12:19;;;;;;;27.30;25.60;;;;;;;;;;5121288;28;20414;-82
2023/09/09 12:14:47;;;;;;;28.03;26.23;;;;;;;;;;5121037;28;20497;-82
2023/09/09 12:17:14;;;;;;;27.20;25.50;;;;;;;;;;5121028;28;20467;-82
2023/09/09 12:19:41;;;;;;;27.43;25.30;;;;;;;;;;5121089;28;20460;-83
2023/09/09 12:22:08;;;;;;;27.10;25.30;;;;;;;;;;5122852;28;20459;-82
2023/09/09 12:24:44;;;;;;;27.03;25.13;;;;;;;;;;5122486;28;20931;-82
2023/09/09 12:27:11;;;;;;;26.70;24.90;;;;;;;;;;5122308;28;20427;-81
2023/09/09 12:29:47;;;;;;;27.10;25.30;;;;;;;;;;5122487;28;21005;-82
2023/09/09 12:32:14;;;;;;;27.50;25.60;;;;;;;;;;5122438;28;20444;-83
2023/09/09 12:34:44;;;;;;;27.67;25.97;;;;;;;;;;5122452;28;20453;-82
2023/09/09 12:37:11;;;;;;;27.87;26.07;;;;;;;;;;5122407;28;20461;-82
2023/09/09 12:39:38;;;;;;;26.40;24.50;;;;;;;;;;5121806;28;20437;-82
2023/09/09 12:42:07;;;;;;;27.03;25.33;;;;;;;;;;5121183;28;20516;-83
2023/09/09 12:44:35;;;;;;;26.77;25.07;;;;;;;;;;5119139;28;20447;-82
2023/09/09 12:47:05;;;;;;;28.03;26.17;;;;;;;;;;5119790;28;20459;-83
2023/09/09 12:49:33;;;;;;;27.60;25.63;;;;;;;;;;5120560;28;21289;-82
2023/09/09 12:52:00;;;;;;;27.43;25.63;;;;;;;;;;5117719;28;20479;-82
2023/09/09 12:54:27;;;;;;;27.53;25.63;;;;;;;;;;5114056;28;20448;-82
2023/09/09 12:56:54;;;;;;;29.03;27.07;;;;;;;;;;5101865;28;20457;-82
2023/09/09 12:59:21;;;;;;;29.13;26.73;;;;;;;;;;5109630;28;20906;-82
2023/09/09 13:01:48;;;;;;;29.40;27.30;;;;;;;;;;5113102;28;20464;-82
2023/09/09 13:04:17;;;;;;;28.70;26.80;;;;;;;;;;5101127;28;20449;-82
2023/09/09 13:06:44;;;;;;;28.07;26.27;;;;;;;;;;5115228;28;20445;-82
2023/09/09 13:09:11;;;;;;;28.73;26.80;;;;;;;;;;5100523;28;20492;-82
2023/09/09 13:11:38;;;;;;;28.90;26.90;;;;;;;;;;5102020;28;20465;-82
2023/09/09 13:14:05;;;;;;;28.50;26.60;;;;;;;;;;5111070;28;20438;-82
2023/09/09 13:16:32;;;;;;;28.30;26.40;;;;;;;;;;5099734;28;20453;-82
2023/09/09 13:18:59;;;;;;;29.10;27.00;;;;;;;;;;5099753;28;20431;-82
2023/09/09 13:21:27;;;;;;;28.47;26.47;;;;;;;;;;5100357;28;20959;-82
2023/09/09 13:23:55;;;;;;;28.33;26.53;;;;;;;;;;5099744;28;20456;-82
2023/09/09 13:26:22;;;;;;;29.43;27.40;;;;;;;;;;5098827;28;20445;-82
2023/09/09 13:28:49;;;;;;;30.30;28.17;;;;;;;;;;5099099;28;20492;-82
2023/09/09 13:31:16;;;;;;;29.83;27.77;;;;;;;;;;5102853;28;20442;-80
2023/09/09 13:33:43;;;;;;;30.67;28.77;;;;;;;;;;5116134;28;21143;-80
2023/09/09 13:36:10;;;;;;;29.53;27.70;;;;;;;;;;5105922;28;20451;-80
2023/09/09 13:38:38;;;;;;;30.00;28.10;;;;;;;;;;5121470;28;20520;-80
2023/09/09 13:41:05;;;;;;;30.10;27.83;;;;;;;;;;5122226;28;20767;-80
2023/09/09 13:43:32;;;;;;;29.80;27.80;;;;;;;;;;5102286;28;20479;-80
2023/09/09 13:45:59;;;;;;;28.20;26.40;;;;;;;;;;5113721;28;20431;-80
2023/09/09 13:48:26;;;;;;;29.57;27.37;;;;;;;;;;5117422;28;20436;-80
2023/09/09 13:50:53;;;;;;;27.50;25.70;;;;;;;;;;5099225;28;20469;-79
2023/09/09 13:53:21;;;;;;;29.63;27.57;;;;;;;;;;5102059;28;20444;-79
2023/09/09 13:55:49;;;;;;;28.97;27.07;;;;;;;;;;5102250;28;20435;-79
2023/09/09 13:58:16;;;;;;;28.40;26.70;;;;;;;;;;5101020;28;20451;-80
2023/09/09 14:00:43;;;;;;;29.70;27.80;;;;;;;;;;5101706;28;20469;-79
2023/09/09 14:03:10;;;;;;;29.70;27.80;;;;;;;;;;5101029;28;20392;-79
2023/09/09 14:05:37;;;;;;;29.00;26.97;;;;;;;;;;5101660;28;20941;-80
2023/09/09 14:08:04;;;;;;;29.97;28.07;;;;;;;;;;5100110;28;20415;-81
2023/09/09 14:10:33;;;;;;;30.80;28.80;;;;;;;;;;5100396;28;20522;-80
2023/09/09 14:13:02;;;;;;;29.00;27.20;;;;;;;;;;5099914;28;20447;-81
2023/09/09 14:15:29;;;;;;;29.70;27.70;;;;;;;;;;5100035;28;20937;-81
2023/09/09 14:17:56;;;;;;;30.10;28.00;;;;;;;;;;5099186;28;20448;-80
2023/09/09 14:20:23;;;;;;;30.30;28.03;;;;;;;;;;5100371;28;21303;-80